Harbert, Michigan
Current Conditions -  °F | °C
As of 6:35 AM on Friday 31 Oct 2014 (Local Time) from KMGC Reporting Station
Light Rain Light Rain  
Wind Chill: 35°   Ceiling: 1700
Heat Index: 41°   Visibility: 7mi
Dew Point: 34°   Wind: 10mph
Humidity: 76%   Direction: 340°NNW
Pressure: 30.01"   Gusts: 20mph
Location:  41.87°N, 86.63°W
Report Text: KMGC 311035Z AUTO 34009G17KT 7SM -RA BKN017 OVC027 05/01 A3001 RMK AO2
Loading
Personal Weather Stations






























Interactive Weather Map
Tropical Storm Tracking
New forecast layout! Learn more

10-Day Weather Forecast

Advertisements
Track Severe Weather on mobile